< < Back
Terminal Aerodrome Forecast


Current Version              Previous Versions:   1  2  3  4  5  6  7  8  9  

Terminal Aerodrome Forecast

253
FTUS42 KFFC 062320
TAFATL
TAF
KATL 062320Z 0700/0806 31006KT P6SM FEW250
     FM080000 29002KT P6SM SCT250=

Latest METAR

772
SAUS70 KWBC 070000 RRB
MTRATL
METAR KATL 062352Z 33008KT 10SM FEW200 BKN250 07/M02 A3038 RMK AO2
SLP296 T00721022 10100 20072 53003


USA.gov is the U.S. government's official web portal to all federal, state and local government web resources and services.